createdAt,value
2022-09-25T00:00:13.793Z,67.40
2022-09-25T00:03:19.437Z,67.60
2022-09-25T00:06:25.959Z,67.90
2022-09-25T00:09:29.128Z,67.80
2022-09-25T00:12:33.664Z,67.80
2022-09-25T00:15:37.099Z,67.60
2022-09-25T00:18:58.960Z,67.90
2022-09-25T00:22:02.167Z,67.50
2022-09-25T00:25:06.028Z,67.50
2022-09-25T00:28:13.125Z,67.60
2022-09-25T00:31:24.425Z,67.80
2022-09-25T00:34:27.744Z,67.90
2022-09-25T00:37:31.308Z,67.90
2022-09-25T00:40:34.558Z,68.10
2022-09-25T00:43:44.489Z,68.30
2022-09-25T00:46:47.648Z,68.70
2022-09-25T00:49:56.588Z,68.80
2022-09-25T00:53:08.007Z,69.10
2022-09-25T00:56:15.190Z,69.10
2022-09-25T00:59:25.983Z,69.20
2022-09-25T01:02:34.387Z,69.20
2022-09-25T01:05:42.786Z,69.30
2022-09-25T01:08:47.617Z,69.80
2022-09-25T01:11:51.212Z,69.80
2022-09-25T01:14:57.185Z,69.70
2022-09-25T01:18:17.606Z,69.50
2022-09-25T01:21:37.647Z,69.50
2022-09-25T01:24:57.425Z,70.20
2022-09-25T01:28:29.940Z,69.90
2022-09-25T01:31:42.711Z,69.70
2022-09-25T01:34:57.505Z,69.30
2022-09-25T01:38:15.302Z,69.50
2022-09-25T01:41:26.098Z,69.50
2022-09-25T01:44:33.533Z,69.30
2022-09-25T01:47:40.424Z,69.40
2022-09-25T01:50:49.713Z,69.00
2022-09-25T01:53:58.561Z,69.20
2022-09-25T01:57:10.325Z,69.50
2022-09-25T02:00:19.281Z,69.60
2022-09-25T02:03:30.878Z,69.00
2022-09-25T02:06:39.193Z,69.20
2022-09-25T02:09:46.826Z,69.10
2022-09-25T02:12:56.919Z,69.00
2022-09-25T02:16:06.998Z,69.30
2022-09-25T02:19:32.345Z,69.10
2022-09-25T02:22:35.886Z,69.80
2022-09-25T02:25:46.104Z,69.70
2022-09-25T02:28:53.685Z,69.90
2022-09-25T02:32:03.167Z,69.80
2022-09-25T02:35:09.561Z,69.70
2022-09-25T02:38:12.995Z,69.40
2022-09-25T02:41:24.811Z,69.20
2022-09-25T02:44:45.185Z,69.60
2022-09-25T02:48:08.523Z,69.20
2022-09-25T02:51:29.431Z,69.50
2022-09-25T02:54:39.613Z,69.50
2022-09-25T02:57:52.669Z,69.20
2022-09-25T03:00:58.767Z,69.30
2022-09-25T03:04:05.454Z,69.30
2022-09-25T03:07:09.900Z,69.30
2022-09-25T03:10:12.168Z,69.70
2022-09-25T03:13:18.772Z,69.90
2022-09-25T03:16:32.100Z,69.80
2022-09-25T03:19:35.768Z,70.10
2022-09-25T03:22:40.331Z,69.90
2022-09-25T03:25:48.974Z,70.00
2022-09-25T03:28:52.944Z,69.70
2022-09-25T03:31:57.565Z,69.60
2022-09-25T03:35:00.727Z,70.10
2022-09-25T03:38:05.701Z,69.40
2022-09-25T03:41:11.672Z,69.80
2022-09-25T03:44:14.724Z,70.00
2022-09-25T03:47:18.284Z,70.00
2022-09-25T03:50:21.507Z,69.90
2022-09-25T03:53:26.399Z,69.90
2022-09-25T03:56:30.483Z,69.90
2022-09-25T03:59:34.404Z,69.80
2022-09-25T04:02:37.903Z,69.70
2022-09-25T04:05:42.124Z,70.10
2022-09-25T04:08:48.964Z,69.60
2022-09-25T04:11:52.097Z,69.80
2022-09-25T04:14:55.191Z,69.60
2022-09-25T04:18:01.175Z,69.60
2022-09-25T04:21:11.106Z,69.60
2022-09-25T04:24:46.382Z,69.60
2022-09-25T04:27:49.834Z,69.50
2022-09-25T04:30:53.072Z,69.70
2022-09-25T04:33:55.240Z,69.20
2022-09-25T04:36:58.296Z,69.20
2022-09-25T04:40:03.071Z,69.30
2022-09-25T04:43:08.305Z,69.30
2022-09-25T04:46:20.010Z,69.20
2022-09-25T04:49:24.824Z,69.20
2022-09-25T04:52:28.397Z,69.10
2022-09-25T04:55:32.913Z,69.20
2022-09-25T04:58:36.609Z,69.90
2022-09-25T05:01:40.542Z,69.30
2022-09-25T05:04:43.800Z,69.60
2022-09-25T05:07:54.160Z,69.60
2022-09-25T05:10:58.709Z,69.90
2022-09-25T05:14:02.405Z,69.70
2022-09-25T05:17:08.170Z,69.70
2022-09-25T05:20:11.474Z,69.80
2022-09-25T05:23:14.505Z,69.90
2022-09-25T05:26:18.875Z,70.00
2022-09-25T05:29:24.280Z,70.40
2022-09-25T05:32:27.600Z,70.40
2022-09-25T05:35:33.120Z,70.40
2022-09-25T05:38:38.881Z,70.20
2022-09-25T05:41:43.426Z,70.60
2022-09-25T05:44:47.558Z,70.80
2022-09-25T05:47:50.704Z,71.00
2022-09-25T05:50:54.192Z,71.10
2022-09-25T05:53:57.463Z,71.70
2022-09-25T05:57:01.972Z,71.10
2022-09-25T06:00:08.749Z,71.10
2022-09-25T06:03:11.972Z,71.10
2022-09-25T06:06:15.366Z,71.00
2022-09-25T06:09:18.554Z,71.00
2022-09-25T06:12:24.899Z,70.90
2022-09-25T06:15:28.672Z,71.00
2022-09-25T06:18:32.407Z,72.10
2022-09-25T06:21:36.165Z,71.80
2022-09-25T06:24:39.253Z,72.40
2022-09-25T06:27:43.669Z,72.30
2022-09-25T06:30:47.703Z,71.50
2022-09-25T06:33:51.757Z,71.00
2022-09-25T06:36:54.879Z,70.10
2022-09-25T06:39:57.917Z,70.40
2022-09-25T06:43:05.084Z,70.00
2022-09-25T06:46:08.319Z,69.50
2022-09-25T06:49:14.622Z,69.40
2022-09-25T06:52:17.552Z,68.30
2022-09-25T06:55:20.536Z,67.80
2022-09-25T06:58:26.767Z,67.00
2022-09-25T07:01:29.889Z,65.80
2022-09-25T07:04:31.914Z,65.20
2022-09-25T07:07:35.119Z,64.90
2022-09-25T07:10:40.707Z,64.00
2022-09-25T07:13:47.900Z,63.30
2022-09-25T07:16:53.113Z,61.80
2022-09-25T07:19:56.690Z,61.10
2022-09-25T07:23:03.933Z,60.70
2022-09-25T07:26:10.090Z,60.00
2022-09-25T07:29:14.614Z,60.00
2022-09-25T07:32:17.711Z,59.20
2022-09-25T07:35:21.057Z,59.60
2022-09-25T07:38:24.310Z,59.70
2022-09-25T07:41:28.009Z,59.90
2022-09-25T07:44:38.039Z,60.00
2022-09-25T07:47:41.667Z,59.90
2022-09-25T07:50:45.403Z,60.20
2022-09-25T07:53:48.768Z,60.30
2022-09-25T07:56:51.874Z,60.20
2022-09-25T07:59:56.417Z,60.30
2022-09-25T08:03:00.515Z,60.00
2022-09-25T08:06:06.883Z,60.30
2022-09-25T08:09:11.559Z,60.00
2022-09-25T08:12:15.405Z,59.90
2022-09-25T08:15:20.524Z,59.80
2022-09-25T08:18:23.709Z,59.70
2022-09-25T08:21:26.851Z,59.80
2022-09-25T08:24:29.895Z,60.00
2022-09-25T08:27:33.317Z,60.00
2022-09-25T08:30:38.203Z,60.20
2022-09-25T08:33:45.973Z,60.30
2022-09-25T08:36:50.955Z,60.80
2022-09-25T08:39:54.390Z,60.50
2022-09-25T08:42:59.586Z,60.80
2022-09-25T08:46:39.768Z,60.40
2022-09-25T08:49:49.871Z,59.90
2022-09-25T08:53:00.057Z,59.90
2022-09-25T08:56:15.546Z,59.70
2022-09-25T08:59:29.555Z,59.90
2022-09-25T09:02:42.663Z,58.90
2022-09-25T09:05:51.687Z,59.40
2022-09-25T09:09:06.738Z,59.40
2022-09-25T09:12:14.999Z,59.00
2022-09-25T09:15:29.389Z,59.20
2022-09-25T09:18:38.853Z,58.80
2022-09-25T09:21:53.303Z,59.00
2022-09-25T09:25:09.255Z,58.70
2022-09-25T09:28:59.740Z,58.70
2022-09-25T09:32:35.706Z,57.90
2022-09-25T09:35:56.165Z,58.10
2022-09-25T09:39:12.823Z,58.20
2022-09-25T09:42:27.368Z,58.30
2022-09-25T09:45:46.439Z,58.40
2022-09-25T09:49:07.491Z,58.60
2022-09-25T09:52:18.827Z,59.00
2022-09-25T09:55:27.947Z,59.10
2022-09-25T09:58:41.549Z,59.30
2022-09-25T10:01:50.010Z,59.40
2022-09-25T10:04:56.706Z,59.60
2022-09-25T10:08:02.123Z,59.20
2022-09-25T10:11:16.803Z,59.20
2022-09-25T10:14:27.414Z,59.20
2022-09-25T10:17:31.833Z,59.30
2022-09-25T10:20:42.894Z,59.10
2022-09-25T10:23:52.926Z,58.90
2022-09-25T10:26:55.954Z,58.80
2022-09-25T10:30:22.516Z,59.40
2022-09-25T10:33:29.117Z,58.60
2022-09-25T10:36:38.025Z,59.00
2022-09-25T10:39:45.234Z,58.70
2022-09-25T10:42:49.614Z,58.70
2022-09-25T10:46:09.180Z,58.70
2022-09-25T10:49:38.414Z,57.60
2022-09-25T10:52:52.937Z,58.20
2022-09-25T10:56:05.169Z,58.40
2022-09-25T10:59:19.541Z,58.10
2022-09-25T11:02:38.096Z,58.10
2022-09-25T11:05:54.973Z,57.50
2022-09-25T11:09:10.318Z,57.40
2022-09-25T11:12:24.478Z,57.00
2022-09-25T11:15:28.810Z,57.20
2022-09-25T11:18:45.830Z,56.90
2022-09-25T11:22:00.370Z,56.50
2022-09-25T11:25:16.788Z,56.30
2022-09-25T11:28:32.853Z,55.40
2022-09-25T11:31:43.436Z,55.00
2022-09-25T11:35:20.256Z,55.30
2022-09-25T11:38:52.244Z,55.30
2022-09-25T11:42:07.671Z,55.70
2022-09-25T11:45:22.755Z,56.10
2022-09-25T11:48:37.700Z,56.10
2022-09-25T11:52:28.708Z,56.30
2022-09-25T11:55:57.471Z,56.60
2022-09-25T11:59:22.578Z,56.90
2022-09-25T12:02:46.262Z,56.90
2022-09-25T12:06:19.961Z,57.00
2022-09-25T12:09:47.967Z,57.30
2022-09-25T12:12:59.811Z,57.80
2022-09-25T12:16:18.584Z,56.90
2022-09-25T12:19:40.172Z,56.90
2022-09-25T12:23:01.678Z,57.30
2022-09-25T12:26:24.942Z,57.90
2022-09-25T12:29:51.886Z,57.50
2022-09-25T12:33:22.645Z,57.80
2022-09-25T12:36:36.400Z,57.50
2022-09-25T12:39:47.291Z,57.60
2022-09-25T12:43:01.918Z,58.10
2022-09-25T12:46:16.677Z,58.20
2022-09-25T12:49:30.145Z,58.60
2022-09-25T12:52:42.661Z,58.60
2022-09-25T12:55:51.464Z,58.70
2022-09-25T12:59:13.932Z,58.80
2022-09-25T13:02:27.482Z,59.00
2022-09-25T13:05:37.854Z,59.00
2022-09-25T13:08:49.601Z,59.20
2022-09-25T13:12:01.731Z,59.20
2022-09-25T13:15:11.756Z,59.40
2022-09-25T13:18:20.427Z,59.70
2022-09-25T13:21:30.496Z,59.90
2022-09-25T13:24:46.458Z,60.10
2022-09-25T13:27:51.077Z,60.40
2022-09-25T13:31:24.452Z,60.50
2022-09-25T13:34:28.180Z,61.50
2022-09-25T13:37:36.565Z,60.80
2022-09-25T13:40:43.542Z,61.00
2022-09-25T13:43:50.461Z,61.10
2022-09-25T13:47:55.121Z,60.60
2022-09-25T13:51:36.870Z,60.60
2022-09-25T13:54:39.948Z,60.40
2022-09-25T13:58:05.787Z,60.20
2022-09-25T14:01:32.934Z,60.00
2022-09-25T14:04:39.957Z,59.90
2022-09-25T14:07:44.255Z,60.30
2022-09-25T14:10:51.662Z,60.00
2022-09-25T14:13:57.527Z,60.10
2022-09-25T14:17:02.267Z,60.00
2022-09-25T14:20:27.672Z,60.00
2022-09-25T14:23:33.354Z,59.80
2022-09-25T14:26:36.424Z,59.90
2022-09-25T14:29:43.100Z,59.80
2022-09-25T14:33:04.088Z,60.10
2022-09-25T14:36:22.691Z,60.40
2022-09-25T14:39:38.045Z,60.50
2022-09-25T14:43:03.309Z,60.80
2022-09-25T14:46:20.324Z,61.10
2022-09-25T14:49:28.843Z,61.30
2022-09-25T14:52:37.405Z,61.80
2022-09-25T14:55:51.108Z,62.00
2022-09-25T14:59:02.027Z,62.20
2022-09-25T15:02:16.481Z,62.20
2022-09-25T15:05:30.289Z,62.10
2022-09-25T15:08:40.946Z,61.70
2022-09-25T15:11:45.407Z,61.70
2022-09-25T15:15:08.113Z,61.40
2022-09-25T15:18:15.706Z,61.60
2022-09-25T15:21:33.493Z,61.30
2022-09-25T15:24:38.460Z,61.50
2022-09-25T15:27:43.561Z,61.20
2022-09-25T15:30:55.940Z,61.30
2022-09-25T15:34:14.622Z,61.30
2022-09-25T15:37:29.345Z,61.80
2022-09-25T15:40:32.753Z,61.90
2022-09-25T15:43:36.716Z,61.80
2022-09-25T15:46:45.623Z,62.00
2022-09-25T15:49:50.345Z,62.20
2022-09-25T15:52:59.520Z,62.30
2022-09-25T15:56:13.724Z,62.50
2022-09-25T15:59:22.811Z,62.40
2022-09-25T16:02:51.242Z,62.40
2022-09-25T16:05:57.126Z,62.50
2022-09-25T16:09:19.614Z,62.50
2022-09-25T16:12:29.731Z,63.10
2022-09-25T16:15:50.002Z,63.30
2022-09-25T16:18:54.633Z,64.20
2022-09-25T16:22:03.381Z,63.70
2022-09-25T16:25:22.316Z,64.30
2022-09-25T16:28:31.361Z,64.70
2022-09-25T16:31:36.425Z,64.70
2022-09-25T16:34:42.337Z,64.70
2022-09-25T16:37:52.608Z,65.30
2022-09-25T16:41:05.808Z,65.90
2022-09-25T16:44:16.512Z,66.20
2022-09-25T16:47:21.619Z,66.00
2022-09-25T16:50:29.137Z,65.80
2022-09-25T16:53:34.828Z,66.10
2022-09-25T16:56:41.051Z,66.20
2022-09-25T16:59:44.701Z,66.60
2022-09-25T17:02:48.970Z,66.50
2022-09-25T17:05:52.906Z,66.80
2022-09-25T17:08:59.929Z,67.00
2022-09-25T17:12:10.437Z,67.40
2022-09-25T17:15:23.508Z,67.80
2022-09-25T17:18:29.346Z,68.10
2022-09-25T17:21:34.007Z,67.80
2022-09-25T17:24:39.137Z,67.80
2022-09-25T17:27:42.423Z,68.00
2022-09-25T17:30:47.201Z,68.30
2022-09-25T17:33:51.260Z,67.90
2022-09-25T17:36:54.460Z,67.80
2022-09-25T17:40:00.710Z,67.90
2022-09-25T17:43:03.786Z,68.30
2022-09-25T17:46:07.066Z,68.10
2022-09-25T17:49:11.484Z,68.10
2022-09-25T17:52:21.451Z,68.20
2022-09-25T17:55:25.954Z,68.40
2022-09-25T17:58:32.774Z,68.60
2022-09-25T18:01:39.431Z,69.00
2022-09-25T18:04:48.229Z,69.40
2022-09-25T18:07:53.676Z,69.10
2022-09-25T18:10:59.650Z,69.30
2022-09-25T18:14:02.848Z,69.70
2022-09-25T18:17:06.021Z,69.50
2022-09-25T18:20:31.874Z,69.60
2022-09-25T18:23:35.430Z,69.90
2022-09-25T18:26:40.551Z,69.70
2022-09-25T18:29:44.695Z,70.10
2022-09-25T18:32:49.448Z,69.90
2022-09-25T18:35:53.345Z,71.00
2022-09-25T18:38:57.265Z,69.40
2022-09-25T18:42:01.938Z,69.40
2022-09-25T18:45:06.877Z,69.70
2022-09-25T18:48:10.143Z,69.70
2022-09-25T18:51:13.176Z,69.90
2022-09-25T18:54:17.224Z,69.80
2022-09-25T18:57:21.795Z,70.00
2022-09-25T19:00:24.785Z,70.10
2022-09-25T19:03:29.371Z,70.00
2022-09-25T19:06:32.613Z,69.90
2022-09-25T19:09:35.879Z,70.20
2022-09-25T19:12:40.696Z,69.70
2022-09-25T19:15:44.278Z,69.70
2022-09-25T19:18:50.334Z,69.70
2022-09-25T19:21:53.704Z,69.40
2022-09-25T19:24:56.874Z,69.60
2022-09-25T19:28:01.706Z,69.60
2022-09-25T19:31:08.274Z,69.70
2022-09-25T19:34:11.905Z,69.70
2022-09-25T19:37:15.708Z,69.80
2022-09-25T19:40:37.408Z,69.60
2022-09-25T19:43:42.881Z,69.60
2022-09-25T19:46:48.234Z,69.50
2022-09-25T19:49:51.451Z,69.40
2022-09-25T19:52:55.466Z,69.40
2022-09-25T19:55:59.240Z,69.40
2022-09-25T19:59:05.622Z,69.60
2022-09-25T20:02:11.975Z,69.60
2022-09-25T20:05:17.104Z,69.70
2022-09-25T20:08:20.411Z,69.70
2022-09-25T20:11:26.118Z,69.80
2022-09-25T20:14:30.944Z,69.80
2022-09-25T20:17:34.091Z,69.80
2022-09-25T20:20:37.325Z,70.20
2022-09-25T20:23:40.807Z,69.70
2022-09-25T20:26:43.886Z,69.90
2022-09-25T20:29:48.876Z,69.80
2022-09-25T20:32:54.103Z,69.80
2022-09-25T20:36:00.547Z,69.80
2022-09-25T20:39:03.750Z,69.80
2022-09-25T20:42:06.880Z,69.80
2022-09-25T20:45:11.917Z,69.90
2022-09-25T20:48:17.829Z,69.90
2022-09-25T20:51:27.245Z,69.70
2022-09-25T20:54:30.472Z,70.00
2022-09-25T20:57:35.288Z,70.20
2022-09-25T21:00:43.097Z,70.00
2022-09-25T21:03:50.132Z,70.00
2022-09-25T21:06:53.851Z,69.90
2022-09-25T21:09:57.124Z,70.00
2022-09-25T21:13:00.245Z,70.00
2022-09-25T21:16:08.484Z,69.60
2022-09-25T21:19:15.341Z,70.20
2022-09-25T21:22:18.557Z,70.20
2022-09-25T21:25:21.949Z,70.00
2022-09-25T21:28:25.307Z,70.10
2022-09-25T21:31:33.004Z,70.00
2022-09-25T21:34:36.172Z,69.90
2022-09-25T21:37:39.726Z,69.80
2022-09-25T21:40:42.764Z,69.70
2022-09-25T21:43:47.157Z,69.60
2022-09-25T21:46:52.403Z,69.60
2022-09-25T21:49:56.542Z,69.40
2022-09-25T21:52:59.881Z,69.40
2022-09-25T21:56:05.669Z,69.70
2022-09-25T21:59:09.625Z,69.00
2022-09-25T22:02:14.749Z,69.00
2022-09-25T22:05:17.617Z,70.00
2022-09-25T22:08:21.592Z,69.30
2022-09-25T22:11:26.460Z,68.80
2022-09-25T22:14:29.518Z,68.50
2022-09-25T22:17:33.945Z,69.10
2022-09-25T22:20:39.224Z,69.10
2022-09-25T22:23:42.670Z,69.50
2022-09-25T22:26:48.986Z,69.30
2022-09-25T22:29:52.280Z,69.20
2022-09-25T22:32:56.599Z,69.20
2022-09-25T22:36:00.797Z,69.30
2022-09-25T22:39:05.535Z,69.30
2022-09-25T22:42:08.630Z,69.70
2022-09-25T22:45:12.139Z,69.10
2022-09-25T22:48:16.665Z,69.20
2022-09-25T22:51:22.314Z,69.30
2022-09-25T22:54:25.522Z,69.30
2022-09-25T22:57:30.701Z,69.40
2022-09-25T23:00:34.037Z,69.60
2022-09-25T23:03:38.968Z,69.50
2022-09-25T23:06:42.419Z,69.40
2022-09-25T23:09:45.612Z,69.70
2022-09-25T23:12:51.967Z,69.80
2022-09-25T23:15:54.941Z,69.80
2022-09-25T23:19:00.769Z,69.90
2022-09-25T23:22:05.196Z,70.10
2022-09-25T23:25:09.317Z,70.50
2022-09-25T23:28:12.615Z,69.90
2022-09-25T23:31:18.690Z,70.10
2022-09-25T23:34:24.939Z,70.20
2022-09-25T23:37:30.320Z,70.30
2022-09-25T23:40:33.379Z,70.10
2022-09-25T23:43:36.771Z,70.10
2022-09-25T23:46:42.983Z,70.20
2022-09-25T23:49:47.253Z,70.30
2022-09-25T23:52:51.307Z,70.40
2022-09-25T23:56:09.716Z,70.30
2022-09-25T23:59:13.983Z,70.80
